createdAt,value
2019-05-06T00:01:49.326Z,6.73
2019-05-06T00:04:21.183Z,8.00
2019-05-06T00:06:54.598Z,14.00
2019-05-06T00:09:26.360Z,8.20
2019-05-06T00:11:57.604Z,6.90
2019-05-06T00:14:28.644Z,6.85
2019-05-06T00:17:00.175Z,7.00
2019-05-06T00:19:34.006Z,10.20
2019-05-06T00:22:04.887Z,11.22
2019-05-06T00:24:44.030Z,12.40
2019-05-06T00:27:24.726Z,8.78
2019-05-06T00:29:56.319Z,6.55
2019-05-06T00:32:27.257Z,7.90
2019-05-06T00:34:58.837Z,7.63
2019-05-06T00:37:30.376Z,7.20
2019-05-06T00:40:07.678Z,6.77
2019-05-06T00:42:48.832Z,9.23
2019-05-06T00:45:20.853Z,8.90
2019-05-06T00:47:53.602Z,7.87
2019-05-06T00:50:25.328Z,8.40
2019-05-06T00:52:58.256Z,9.80
2019-05-06T00:55:29.328Z,8.23
2019-05-06T00:58:00.271Z,7.70
2019-05-06T01:00:38.328Z,14.20
2019-05-06T01:03:09.897Z,9.20
2019-05-06T01:05:41.129Z,12.60
2019-05-06T01:08:14.140Z,13.85
2019-05-06T01:10:45.628Z,11.08
2019-05-06T01:13:48.190Z,13.58
2019-05-06T01:16:21.285Z,13.08
2019-05-06T01:18:54.171Z,16.35
2019-05-06T01:21:25.408Z,16.47
2019-05-06T01:23:56.958Z,16.87
2019-05-06T01:26:28.178Z,9.45
2019-05-06T01:28:59.439Z,8.68
2019-05-06T01:31:42.207Z,15.68
2019-05-06T01:34:04.421Z,11.75
2019-05-06T01:36:35.302Z,10.67
2019-05-06T01:39:17.448Z,11.77
2019-05-06T01:42:07.856Z,9.80
2019-05-06T01:44:39.186Z,12.15
2019-05-06T01:47:10.440Z,11.88
2019-05-06T01:49:44.223Z,13.83
2019-05-06T01:52:15.304Z,14.28
2019-05-06T01:54:47.053Z,13.62
2019-05-06T01:57:18.310Z,9.68
2019-05-06T01:59:50.142Z,11.80
2019-05-06T02:02:21.060Z,13.20
2019-05-06T02:04:54.091Z,11.85
2019-05-06T02:07:25.597Z,11.67
2019-05-06T02:09:56.868Z,11.22
2019-05-06T02:12:28.416Z,11.63
2019-05-06T02:15:00.051Z,12.40
2019-05-06T02:17:31.039Z,13.93
2019-05-06T02:20:04.070Z,15.93
2019-05-06T02:22:58.655Z,10.68
2019-05-06T02:25:36.299Z,10.95
2019-05-06T02:28:07.943Z,17.48
2019-05-06T02:30:56.788Z,16.65
2019-05-06T02:33:44.806Z,15.80
2019-05-06T02:36:38.969Z,20.35
2019-05-06T02:39:10.238Z,15.70
2019-05-06T02:41:43.016Z,16.23
2019-05-06T02:44:14.879Z,13.48
2019-05-06T02:46:48.905Z,15.90
2019-05-06T02:49:26.355Z,19.25
2019-05-06T02:51:58.183Z,15.95
2019-05-06T02:54:29.459Z,16.37
2019-05-06T02:57:03.921Z,15.98
2019-05-06T02:59:34.040Z,16.05
2019-05-06T03:02:05.363Z,12.00
2019-05-06T03:04:37.037Z,13.58
2019-05-06T03:07:08.769Z,13.93
2019-05-06T03:09:40.303Z,17.07
2019-05-06T03:12:13.556Z,16.52
2019-05-06T03:14:44.069Z,11.70
2019-05-06T03:17:15.449Z,13.80
2019-05-06T03:19:48.411Z,13.88
2019-05-06T03:22:34.680Z,10.70
2019-05-06T03:25:15.210Z,14.73
2019-05-06T03:27:47.090Z,20.00
2019-05-06T03:30:18.409Z,13.95
2019-05-06T03:33:23.295Z,13.20
2019-05-06T03:35:36.113Z,15.93
2019-05-06T03:37:56.495Z,16.12
2019-05-06T03:40:28.471Z,11.00
2019-05-06T03:43:02.621Z,16.50
2019-05-06T03:45:42.861Z,18.82
2019-05-06T03:48:18.380Z,16.32
2019-05-06T03:50:49.704Z,17.10
2019-05-06T03:53:23.278Z,16.55
2019-05-06T03:55:55.739Z,20.45
2019-05-06T03:58:27.764Z,16.67
2019-05-06T04:00:59.281Z,17.17
2019-05-06T04:03:43.949Z,24.50
2019-05-06T04:06:04.926Z,21.00
2019-05-06T04:08:36.905Z,20.85
2019-05-06T04:11:08.219Z,21.37
2019-05-06T04:13:43.567Z,20.32
2019-05-06T04:16:23.104Z,21.77
2019-05-06T04:19:04.024Z,23.07
2019-05-06T04:21:43.684Z,20.60
2019-05-06T04:24:35.455Z,23.47
2019-05-06T04:27:35.192Z,21.95
2019-05-06T04:30:06.555Z,26.57
2019-05-06T04:32:38.540Z,26.85
2019-05-06T04:35:13.245Z,23.25
2019-05-06T04:37:44.297Z,24.98
2019-05-06T04:40:16.410Z,28.50
2019-05-06T04:42:48.011Z,19.45
2019-05-06T04:45:18.975Z,25.77
2019-05-06T04:47:53.497Z,21.62
2019-05-06T04:50:24.436Z,22.25
2019-05-06T04:53:06.046Z,23.75
2019-05-06T04:55:38.237Z,24.92
2019-05-06T04:58:13.133Z,23.83
2019-05-06T05:00:44.530Z,25.02
2019-05-06T05:03:15.929Z,25.05
2019-05-06T05:05:47.347Z,24.90
2019-05-06T05:08:18.732Z,19.42
2019-05-06T05:10:55.841Z,22.95
2019-05-06T05:13:42.914Z,23.50
2019-05-06T05:16:33.171Z,24.67
2019-05-06T05:19:09.774Z,18.42
2019-05-06T05:21:42.941Z,22.67
2019-05-06T05:24:15.298Z,21.80
2019-05-06T05:26:47.280Z,31.27
2019-05-06T05:29:18.399Z,20.62
2019-05-06T05:31:49.376Z,22.87
2019-05-06T05:34:22.311Z,28.15
2019-05-06T05:36:54.083Z,24.63
2019-05-06T05:39:25.937Z,21.70
2019-05-06T05:42:00.409Z,22.65
2019-05-06T05:44:35.012Z,24.75
2019-05-06T05:47:06.069Z,28.42
2019-05-06T05:52:57.110Z,20.80
2019-05-06T05:55:29.025Z,24.18
2019-05-06T05:58:00.227Z,23.98
2019-05-06T06:00:34.135Z,27.87
2019-05-06T06:03:07.184Z,22.27
2019-05-06T06:05:38.689Z,22.98
2019-05-06T06:08:12.956Z,26.25
2019-05-06T06:10:53.864Z,33.58
2019-05-06T06:13:24.781Z,26.03
2019-05-06T06:16:15.080Z,23.57
2019-05-06T06:19:09.596Z,27.67
2019-05-06T06:21:48.782Z,28.10
2019-05-06T06:24:24.851Z,24.47
2019-05-06T06:26:56.940Z,26.03
2019-05-06T06:29:29.262Z,29.57
2019-05-06T06:32:25.112Z,21.87
2019-05-06T06:35:18.850Z,25.35
2019-05-06T06:38:13.277Z,113.30
2019-05-06T06:40:45.417Z,24.77
2019-05-06T06:43:22.913Z,27.30
2019-05-06T06:45:54.261Z,20.50
2019-05-06T06:48:27.865Z,19.07
2019-05-06T06:50:59.106Z,17.42
2019-05-06T06:53:32.729Z,25.12
2019-05-06T06:56:28.937Z,25.70
2019-05-06T06:59:07.644Z,15.48
2019-05-06T07:01:48.727Z,17.62
2019-05-06T07:04:27.942Z,21.73
2019-05-06T07:07:02.763Z,26.12
2019-05-06T07:09:33.711Z,19.00
2019-05-06T07:12:05.625Z,21.17
2019-05-06T07:14:37.185Z,20.62
2019-05-06T07:17:09.202Z,23.53
2019-05-06T07:19:44.749Z,23.77
2019-05-06T07:22:16.093Z,25.72
2019-05-06T07:24:47.562Z,20.12
2019-05-06T07:27:22.789Z,23.40
2019-05-06T07:29:54.919Z,21.47
2019-05-06T07:32:26.500Z,28.15
2019-05-06T07:34:57.539Z,25.27
2019-05-06T07:37:28.519Z,25.15
2019-05-06T07:40:00.292Z,21.10
2019-05-06T07:42:45.890Z,25.37
2019-05-06T07:45:32.947Z,21.65
2019-05-06T07:48:07.363Z,20.92
2019-05-06T07:50:38.847Z,21.65
2019-05-06T07:53:13.144Z,19.80
2019-05-06T07:55:44.491Z,18.87
2019-05-06T07:58:15.181Z,20.32
2019-05-06T08:00:47.139Z,18.30
2019-05-06T08:03:17.860Z,25.53
2019-05-06T08:05:57.864Z,18.73
2019-05-06T08:08:23.023Z,24.87
2019-05-06T08:10:54.837Z,20.43
2019-05-06T08:13:25.838Z,23.10
2019-05-06T08:15:57.409Z,20.97
2019-05-06T08:18:28.726Z,18.70
2019-05-06T08:21:02.482Z,19.03
2019-05-06T08:23:42.877Z,20.30
2019-05-06T08:26:17.717Z,24.50
2019-05-06T08:28:48.292Z,21.60
2019-05-06T08:31:22.369Z,20.60
2019-05-06T08:33:54.595Z,26.90
2019-05-06T08:36:33.665Z,22.23
2019-05-06T08:39:06.433Z,23.63
2019-05-06T08:41:38.500Z,19.70
2019-05-06T08:44:10.221Z,20.43
2019-05-06T08:46:43.151Z,27.17
2019-05-06T08:49:15.282Z,22.77
2019-05-06T08:51:56.613Z,20.50
2019-05-06T08:54:43.317Z,21.70
2019-05-06T08:57:14.935Z,20.80
2019-05-06T08:59:46.207Z,24.47
2019-05-06T09:02:19.149Z,22.80
2019-05-06T09:04:51.806Z,21.13
2019-05-06T09:07:23.879Z,19.90
2019-05-06T09:09:55.110Z,30.70
2019-05-06T09:12:26.696Z,23.50
2019-05-06T09:14:58.241Z,22.63
2019-05-06T09:17:30.145Z,18.13
2019-05-06T09:20:02.722Z,19.50
2019-05-06T09:22:34.761Z,18.37
2019-05-06T09:25:06.256Z,17.67
2019-05-06T09:28:03.032Z,16.03
2019-05-06T09:30:46.146Z,18.70
2019-05-06T09:33:19.866Z,19.10
2019-05-06T09:35:52.881Z,25.07
2019-05-06T09:38:23.952Z,19.23
2019-05-06T09:40:55.842Z,14.97
2019-05-06T09:43:27.443Z,18.30
2019-05-06T09:45:59.125Z,19.33
2019-05-06T09:48:49.610Z,18.33
2019-05-06T09:51:22.119Z,20.80
2019-05-06T09:54:17.292Z,15.63
2019-05-06T09:56:53.461Z,16.07
2019-05-06T09:59:25.123Z,15.17
2019-05-06T10:01:56.686Z,16.50
2019-05-06T10:04:28.703Z,15.63
2019-05-06T10:07:02.614Z,16.60
2019-05-06T10:09:35.394Z,15.43
2019-05-06T10:12:06.856Z,15.60
2019-05-06T10:14:38.251Z,11.23
2019-05-06T10:17:09.570Z,13.30
2019-05-06T10:19:42.877Z,15.50
2019-05-06T10:22:14.534Z,14.77
2019-05-06T10:24:46.447Z,16.33
2019-05-06T10:27:17.807Z,16.67
2019-05-06T10:30:14.149Z,14.70
2019-05-06T10:32:54.656Z,17.60
2019-05-06T10:35:29.467Z,22.43
2019-05-06T10:38:33.307Z,16.70
2019-05-06T10:41:08.867Z,12.00
2019-05-06T10:43:52.850Z,10.40
2019-05-06T10:46:24.418Z,13.87
2019-05-06T10:48:55.804Z,17.33
2019-05-06T10:51:33.104Z,16.10
2019-05-06T10:54:04.696Z,15.03
2019-05-06T10:56:57.389Z,13.60
2019-05-06T10:59:28.176Z,14.10
2019-05-06T11:02:05.322Z,15.33
2019-05-06T11:04:35.569Z,10.27
2019-05-06T11:07:06.926Z,11.10
2019-05-06T11:09:38.471Z,11.27
2019-05-06T11:12:10.029Z,14.90
2019-05-06T11:14:41.609Z,13.83
2019-05-06T11:17:13.222Z,7.33
2019-05-06T11:19:44.619Z,7.00
2019-05-06T11:22:15.279Z,8.40
2019-05-06T11:24:46.695Z,8.53
2019-05-06T11:27:28.726Z,8.40
2019-05-06T11:29:53.966Z,9.93
2019-05-06T11:32:35.727Z,9.63
2019-05-06T11:35:12.412Z,15.83
2019-05-06T11:37:54.520Z,11.83
2019-05-06T11:40:26.424Z,12.90
2019-05-06T11:42:57.995Z,12.57
2019-05-06T11:45:29.577Z,12.03
2019-05-06T11:48:00.836Z,10.73
2019-05-06T11:50:33.439Z,10.00
2019-05-06T11:53:05.172Z,10.20
2019-05-06T11:55:38.762Z,6.90
2019-05-06T11:58:28.877Z,9.90
2019-05-06T12:01:04.010Z,12.00
2019-05-06T12:03:35.556Z,8.57
2019-05-06T12:06:06.594Z,16.43
2019-05-06T12:08:38.187Z,14.13
2019-05-06T12:11:12.641Z,7.50
2019-05-06T12:13:43.330Z,12.00
2019-05-06T12:16:14.467Z,7.70
2019-05-06T12:18:46.112Z,9.60
2019-05-06T12:21:19.314Z,10.17
2019-05-06T12:23:50.394Z,11.10
2019-05-06T12:26:22.103Z,9.10
2019-05-06T12:28:53.691Z,7.37
2019-05-06T12:31:25.082Z,12.07
2019-05-06T12:33:56.112Z,7.73
2019-05-06T12:36:27.706Z,9.07
2019-05-06T12:39:23.017Z,10.07
2019-05-06T12:42:14.440Z,10.20
2019-05-06T12:45:03.581Z,8.60
2019-05-06T12:47:54.439Z,7.60
2019-05-06T12:50:25.713Z,10.60
2019-05-06T12:52:57.854Z,10.63
2019-05-06T12:55:29.699Z,9.03
2019-05-06T12:58:02.929Z,9.40
2019-05-06T13:00:34.595Z,7.73
2019-05-06T13:03:06.628Z,8.83
2019-05-06T13:05:38.256Z,14.00
2019-05-06T13:08:09.916Z,6.83
2019-05-06T13:10:42.091Z,9.97
2019-05-06T13:13:13.004Z,9.50
2019-05-06T13:15:45.017Z,9.57
2019-05-06T13:18:16.775Z,14.10
2019-05-06T13:20:51.405Z,7.70
2019-05-06T13:23:26.989Z,12.47
2019-05-06T13:25:58.612Z,13.20
2019-05-06T13:28:33.329Z,8.40
2019-05-06T13:31:16.163Z,9.60
2019-05-06T13:33:44.293Z,8.87
2019-05-06T13:36:15.873Z,7.50
2019-05-06T13:38:47.611Z,6.67
2019-05-06T13:41:18.869Z,8.77
2019-05-06T13:43:55.870Z,7.40
2019-05-06T13:46:29.425Z,7.67
2019-05-06T13:49:18.225Z,8.53
2019-05-06T13:52:03.375Z,8.97
2019-05-06T13:54:32.045Z,9.60
2019-05-06T13:57:03.674Z,7.67
2019-05-06T13:59:36.957Z,10.70
2019-05-06T14:02:18.627Z,9.47
2019-05-06T14:04:56.399Z,9.27
2019-05-06T14:07:28.685Z,8.13
2019-05-06T14:10:02.498Z,14.03
2019-05-06T14:12:33.458Z,7.47
2019-05-06T14:15:05.273Z,7.30
2019-05-06T14:17:36.834Z,7.20
2019-05-06T14:20:08.613Z,7.67
2019-05-06T14:22:39.919Z,7.60
2019-05-06T14:25:33.596Z,9.90
2019-05-06T14:28:19.272Z,8.60
2019-05-06T14:31:03.343Z,7.07
2019-05-06T14:33:35.107Z,9.33
2019-05-06T14:36:06.276Z,6.60
2019-05-06T14:38:37.868Z,11.80
2019-05-06T14:41:27.023Z,9.53
2019-05-06T14:43:56.781Z,8.07
2019-05-06T14:46:33.154Z,11.97
2019-05-06T14:49:04.991Z,13.17
2019-05-06T14:51:36.901Z,8.57
2019-05-06T14:54:07.911Z,9.43
2019-05-06T14:56:46.986Z,11.30
2019-05-06T14:59:18.667Z,10.53
2019-05-06T15:01:49.365Z,9.17
2019-05-06T15:04:23.036Z,10.00
2019-05-06T15:06:54.321Z,8.90
2019-05-06T15:09:26.169Z,12.60
2019-05-06T15:11:57.753Z,10.50
2019-05-06T15:14:29.361Z,10.93
2019-05-06T15:17:02.199Z,11.73
2019-05-06T15:19:33.668Z,9.73
2019-05-06T15:22:04.972Z,8.30
2019-05-06T15:24:36.915Z,7.80
2019-05-06T15:27:08.386Z,13.60
2019-05-06T15:29:41.795Z,8.27
2019-05-06T15:32:17.715Z,9.10
2019-05-06T15:35:22.172Z,10.87
2019-05-06T15:37:59.339Z,8.43
2019-05-06T15:40:36.024Z,6.33
2019-05-06T15:43:05.300Z,7.23
2019-05-06T15:45:37.450Z,8.30
2019-05-06T15:48:08.452Z,9.77
2019-05-06T15:50:43.242Z,9.90
2019-05-06T15:53:13.102Z,5.90
2019-05-06T15:55:45.006Z,10.93
2019-05-06T15:58:16.673Z,9.93
2019-05-06T16:00:48.280Z,8.77
2019-05-06T16:03:22.429Z,7.40
2019-05-06T16:05:55.226Z,9.53
2019-05-06T16:08:26.732Z,6.80
2019-05-06T16:10:58.828Z,7.57
2019-05-06T16:13:30.473Z,8.40
2019-05-06T16:16:02.951Z,7.40
2019-05-06T16:18:35.278Z,7.23
2019-05-06T16:21:07.078Z,6.57
2019-05-06T16:23:49.185Z,6.50
2019-05-06T16:26:22.806Z,9.90
2019-05-06T16:28:53.293Z,9.37
2019-05-06T16:31:24.894Z,6.13
2019-05-06T16:33:56.566Z,9.90
2019-05-06T16:36:28.274Z,6.20
2019-05-06T16:39:00.052Z,6.00
2019-05-06T16:41:31.734Z,6.43
2019-05-06T16:44:02.757Z,7.73
2019-05-06T16:46:34.409Z,6.47
2019-05-06T16:49:06.060Z,7.00
2019-05-06T16:51:37.676Z,8.30
2019-05-06T16:54:09.367Z,6.47
2019-05-06T16:57:03.678Z,8.43
2019-05-06T16:59:34.738Z,7.03
2019-05-06T17:02:13.792Z,6.93
2019-05-06T17:04:52.546Z,7.20
2019-05-06T17:07:23.709Z,9.33
2019-05-06T17:09:55.079Z,7.60
2019-05-06T17:12:26.924Z,6.23
2019-05-06T17:14:58.508Z,8.20
2019-05-06T17:17:43.066Z,5.43
2019-05-06T17:20:03.166Z,6.53
2019-05-06T17:22:35.041Z,7.47
2019-05-06T17:25:07.042Z,9.27
2019-05-06T17:27:40.074Z,5.10
2019-05-06T17:30:34.685Z,4.93
2019-05-06T17:33:36.539Z,6.40
2019-05-06T17:36:12.563Z,5.40
2019-05-06T17:38:48.375Z,5.03
2019-05-06T17:41:20.232Z,6.97
2019-05-06T17:43:52.128Z,4.80
2019-05-06T17:46:26.194Z,7.57
2019-05-06T17:49:06.791Z,5.13
2019-05-06T17:51:56.829Z,4.83
2019-05-06T17:54:28.720Z,8.10
2019-05-06T17:57:03.836Z,6.30
2019-05-06T17:59:36.843Z,4.20
2019-05-06T18:02:10.334Z,4.40
2019-05-06T18:04:43.050Z,6.10
2019-05-06T18:07:14.610Z,3.90
2019-05-06T18:09:47.775Z,6.57
2019-05-06T18:12:19.106Z,4.10
2019-05-06T18:14:53.424Z,5.53
2019-05-06T18:17:25.348Z,4.87
2019-05-06T18:19:57.277Z,5.57
2019-05-06T18:22:28.300Z,7.03
2019-05-06T18:25:02.098Z,5.27
2019-05-06T18:27:33.716Z,55.30
2019-05-06T18:30:17.736Z,8.23
2019-05-06T18:32:39.167Z,10.23
2019-05-06T18:35:13.067Z,5.53
2019-05-06T18:37:45.494Z,5.60
2019-05-06T18:40:16.885Z,6.57
2019-05-06T18:42:48.837Z,4.40
2019-05-06T18:45:22.045Z,6.17
2019-05-06T18:47:53.780Z,4.97
2019-05-06T18:50:25.456Z,4.87
2019-05-06T18:52:57.287Z,5.60
2019-05-06T18:55:29.366Z,6.43
2019-05-06T18:58:02.279Z,4.57
2019-05-06T19:00:34.303Z,6.73
2019-05-06T19:03:05.748Z,6.60
2019-05-06T19:05:39.292Z,4.73
2019-05-06T19:08:22.697Z,5.10
2019-05-06T19:10:54.784Z,3.90
2019-05-06T19:13:27.034Z,5.80
2019-05-06T19:15:58.932Z,6.10
2019-05-06T19:18:31.135Z,5.60
2019-05-06T19:21:02.996Z,5.87
2019-05-06T19:23:35.001Z,10.40
2019-05-06T19:26:06.448Z,14.80
2019-05-06T19:28:38.404Z,17.00
2019-05-06T19:31:12.206Z,15.93
2019-05-06T19:33:43.176Z,15.23
2019-05-06T19:36:14.941Z,8.87
2019-05-06T19:38:46.029Z,9.97
2019-05-06T19:41:18.167Z,7.13
2019-05-06T19:43:49.771Z,5.70
2019-05-06T19:46:21.908Z,5.70
2019-05-06T19:48:53.787Z,5.37
2019-05-06T19:51:25.853Z,5.60
2019-05-06T19:53:58.010Z,9.00
2019-05-06T19:56:30.256Z,7.73
2019-05-06T19:59:02.181Z,6.13
2019-05-06T20:01:34.598Z,6.40
2019-05-06T20:04:06.462Z,7.03
2019-05-06T20:06:47.155Z,10.67
2019-05-06T20:09:46.912Z,7.50
2019-05-06T20:12:36.783Z,6.63
2019-05-06T20:15:26.404Z,5.80
2019-05-06T20:17:58.198Z,5.67
2019-05-06T20:20:32.675Z,5.90
2019-05-06T20:23:03.337Z,6.20
2019-05-06T20:25:37.138Z,7.33
2019-05-06T20:28:09.023Z,7.93
2019-05-06T20:30:42.298Z,6.90
2019-05-06T20:33:14.700Z,8.30
2019-05-06T20:35:46.382Z,9.63
2019-05-06T20:38:17.811Z,6.63
2019-05-06T20:40:49.156Z,7.60
2019-05-06T20:43:23.933Z,7.23
2019-05-06T20:45:55.163Z,6.50
2019-05-06T20:48:26.457Z,5.77
2019-05-06T20:50:58.439Z,6.70
2019-05-06T20:53:29.758Z,5.80
2019-05-06T20:56:02.778Z,7.17
2019-05-06T20:58:33.963Z,7.10
2019-05-06T21:01:05.613Z,12.73
2019-05-06T21:03:36.545Z,7.07
2019-05-06T21:06:08.339Z,8.77
2019-05-06T21:08:42.035Z,8.60
2019-05-06T21:11:25.701Z,7.60
2019-05-06T21:13:46.963Z,9.83
2019-05-06T21:16:18.396Z,14.00
2019-05-06T21:18:51.974Z,8.87
2019-05-06T21:21:22.631Z,8.70
2019-05-06T21:23:54.247Z,8.27
2019-05-06T21:26:25.582Z,8.73
2019-05-06T21:28:57.487Z,6.70
2019-05-06T21:31:29.055Z,10.97
2019-05-06T21:34:00.603Z,7.43
2019-05-06T21:36:31.886Z,8.40
2019-05-06T21:39:03.593Z,7.13
2019-05-06T21:41:34.928Z,8.60
2019-05-06T21:44:06.428Z,6.63
2019-05-06T21:46:37.802Z,7.63
2019-05-06T21:49:08.926Z,7.00
2019-05-06T21:51:42.494Z,7.23
2019-05-06T21:54:13.599Z,10.67
2019-05-06T21:56:44.876Z,7.60
2019-05-06T21:59:16.968Z,8.97
2019-05-06T22:01:48.056Z,10.73
2019-05-06T22:04:19.764Z,11.10
2019-05-06T22:06:52.397Z,23.97
2019-05-06T22:09:23.838Z,13.07
2019-05-06T22:11:55.101Z,9.50
2019-05-06T22:14:26.929Z,11.83
2019-05-06T22:16:58.590Z,13.47
2019-05-06T22:19:32.036Z,10.47
2019-05-06T22:22:05.666Z,10.20
2019-05-06T22:24:57.928Z,10.67
2019-05-06T22:27:29.844Z,9.23
2019-05-06T22:30:03.268Z,9.67
2019-05-06T22:32:45.910Z,9.40
2019-05-06T22:35:18.833Z,14.47
2019-05-06T22:37:52.747Z,10.13
2019-05-06T22:40:24.099Z,9.43
2019-05-06T22:42:55.355Z,10.70
2019-05-06T22:45:26.387Z,13.73
2019-05-06T22:47:57.945Z,11.67
2019-05-06T22:50:29.350Z,14.13
2019-05-06T22:53:02.329Z,9.07
2019-05-06T22:55:33.988Z,11.08
2019-05-06T22:58:05.864Z,10.57
2019-05-06T23:00:42.549Z,11.00
2019-05-06T23:03:17.227Z,11.88
2019-05-06T23:05:47.657Z,13.30
2019-05-06T23:08:18.600Z,13.90
2019-05-06T23:10:50.149Z,11.18
2019-05-06T23:13:23.073Z,11.33
2019-05-06T23:15:54.630Z,12.47
2019-05-06T23:18:26.361Z,13.00
2019-05-06T23:20:58.291Z,9.20
2019-05-06T23:23:30.151Z,13.63
2019-05-06T23:26:18.943Z,16.87
2019-05-06T23:28:52.529Z,11.57
2019-05-06T23:31:24.511Z,13.90
2019-05-06T23:33:55.985Z,12.03
2019-05-06T23:36:28.840Z,14.45
2019-05-06T23:40:04.475Z,13.45
2019-05-06T23:43:29.390Z,11.38
2019-05-06T23:46:53.952Z,14.68
2019-05-06T23:50:18.515Z,15.53
2019-05-06T23:53:43.606Z,15.15
2019-05-06T23:56:42.906Z,13.50
2019-05-06T23:59:15.008Z,13.28
